Kezdőlap
METAR-TAF:

METAR-TAF

Repülőterek :

Worthington Municipal Airport

Worthington, Minnesota, Amerikai Egyesült Államok

földrajzi szélesség: 43-39N, földrajzi hosszúság: 095-35W, magasság: 480 m

Jelenlegi meteorológiai megfigyelések

A jelentés 22 perccel ezelõtt készült, 17:56 UTC
Déli szél 4 kt
Hőmérséklet 30°C
Páratartalom 31%
Légköri nyomás 1013 hPa
Látótávolság: 16.1 km
Derült ég

METAR: KOTG 181756Z AUTO 19004KT 10SM CLR 30/11 A2991 RMK AO2 SLP122 6//// T03000106 10300 20172 53009 PNO $

Idő: 13:18 (18:18 UTC)


TAF: hiányzik

Meteorológiai megfigyelések és előrejelzések több, mint 4000 repülőtéren (METAR és TAF jelentéseket).

A térképen piros és sárga pontok jelzik az elérhető meteorológiai állomásokat.

Mozgassa az egeret a pont fölött, hogy megjelenjen az állomás neve.

Azután kattintson az időjárási megfigyelések és előrejelzések megtekintéséhez.

A térkép megváltoztatása: kattintson a fekete keresztel jelölt zöld gombra ráközelítéshez, a vonallal jelölt zöld gombra távolításhoz, vagy a zöld nyilakra a szomszédos térképek eléréséhez.


METAR-TAF: